Time;durP1;ratioP1;P1;durP2;ratioP2;P2;SDS_P1;SDS_P2;PMS_P1;PMS_P2;Temp;Humidity;BMP_temperature;BMP_pressure;BME280_temperature;BME280_humidity;BME280_pressure;Samples;Min_cycle;Max_cycle;Signal;HPM_P1;HPM_P2
2023/12/29 00:00:36;;;;;;;17.45;2.92;;;10.80;99.90;;;;;;5028990;28;20041;-57
2023/12/29 00:03:02;;;;;;;11.48;2.63;;;11.10;99.90;;;;;;5029179;28;20042;-59
2023/12/29 00:05:28;;;;;;;19.40;4.40;;;10.70;99.90;;;;;;5029311;28;20484;-58
2023/12/29 00:07:53;;;;;;;21.05;2.90;;;10.90;99.90;;;;;;5029122;28;20030;-58
2023/12/29 00:10:19;;;;;;;15.57;2.83;;;10.80;99.90;;;;;;5029163;28;20045;-58
2023/12/29 00:12:45;;;;;;;11.82;2.50;;;10.70;99.90;;;;;;5028990;28;20037;-57
2023/12/29 00:15:10;;;;;;;15.40;2.55;;;10.60;99.90;;;;;;5080849;28;20039;-56
2023/12/29 00:17:40;;;;;;;17.83;2.88;;;10.60;99.90;;;;;;5111805;28;20097;-57
2023/12/29 00:20:09;;;;;;;16.58;2.85;;;10.40;99.90;;;;;;5111912;28;20051;-57
2023/12/29 00:22:35;;;;;;;15.52;2.90;;;10.40;99.90;;;;;;5112366;28;20055;-57
2023/12/29 00:25:01;;;;;;;13.30;2.70;;;10.40;99.90;;;;;;5111955;28;20435;-58
2023/12/29 00:27:26;;;;;;;16.90;3.72;;;10.40;99.90;;;;;;5031576;28;20108;-58
2023/12/29 00:29:52;;;;;;;16.45;2.78;;;10.60;99.90;;;;;;5028974;28;20057;-58
2023/12/29 00:32:18;;;;;;;15.85;3.30;;;10.50;99.90;;;;;;5103959;28;20039;-58
2023/12/29 00:34:43;;;;;;;14.50;3.30;;;10.30;99.90;;;;;;5111807;28;20054;-58
2023/12/29 00:37:09;;;;;;;17.92;3.63;;;10.40;99.90;;;;;;5112061;28;20061;-57
2023/12/29 00:39:38;;;;;;;18.17;2.92;;;10.60;99.90;;;;;;5105171;28;20087;-59
2023/12/29 00:42:06;;;;;;;15.48;4.10;;;10.30;99.90;;;;;;5111489;28;20126;-57
2023/12/29 00:44:32;;;;;;;22.80;4.13;;;10.50;99.90;;;;;;5111763;28;20479;-57
2023/12/29 00:46:59;;;;;;;17.05;3.60;;;10.50;99.90;;;;;;5026919;28;20044;-59
2023/12/29 00:49:25;;;;;;;16.02;3.30;;;10.60;99.90;;;;;;5028371;28;20029;-59
2023/12/29 00:51:51;;;;;;;18.35;3.67;;;10.30;99.90;;;;;;5028582;28;20514;-60
2023/12/29 00:54:17;;;;;;;18.40;3.50;;;10.50;99.90;;;;;;5028491;28;20045;-59
2023/12/29 00:56:51;;;;;;;20.00;3.42;;;10.50;99.90;;;;;;5027929;28;20540;-59
2023/12/29 00:59:18;;;;;;;;;;;10.60;99.90;;;;;;5028641;28;20041;-57
2023/12/29 01:01:44;;;;;;;14.23;2.88;;;10.60;99.90;;;;;;5065441;28;19919;-58
2023/12/29 01:04:10;;;;;;;18.52;4.10;;;10.50;99.90;;;;;;5088244;28;20537;-59
2023/12/29 01:06:35;;;;;;;22.25;3.33;;;10.60;99.90;;;;;;5027791;28;20539;-59
2023/12/29 01:09:01;;;;;;;17.27;3.83;;;10.50;99.90;;;;;;5028108;28;20045;-60
2023/12/29 01:11:27;;;;;;;15.43;2.78;;;10.50;99.90;;;;;;5028010;28;20034;-59
2023/12/29 01:13:52;;;;;;;15.55;3.65;;;10.30;99.90;;;;;;5028397;28;20049;-57
2023/12/29 01:16:18;;;;;;;13.70;3.35;;;10.50;99.90;;;;;;5027721;28;20070;-57
2023/12/29 01:18:44;;;;;;;17.05;3.13;;;10.50;99.90;;;;;;5028040;28;20037;-58
2023/12/29 01:21:09;;;;;;;15.05;3.50;;;10.70;99.90;;;;;;5027687;28;20590;-58
2023/12/29 01:23:35;;;;;;;13.52;2.80;;;10.60;99.90;;;;;;5028146;28;20111;-57
2023/12/29 01:26:01;;;;;;;13.85;2.88;;;10.40;99.90;;;;;;5028092;28;20037;-58
2023/12/29 01:28:26;;;;;;;17.85;2.90;;;10.50;99.90;;;;;;5096835;28;20047;-57
2023/12/29 01:30:52;;;;;;;14.55;2.75;;;10.80;99.90;;;;;;5026437;28;20166;-55
2023/12/29 01:33:19;;;;;;;11.57;2.45;;;10.60;99.90;;;;;;5028054;28;20045;-57
2023/12/29 01:35:45;;;;;;;9.35;2.40;;;10.70;99.90;;;;;;5027920;28;20052;-57
2023/12/29 01:38:10;;;;;;;14.73;3.30;;;10.60;99.90;;;;;;5027921;28;20037;-57
2023/12/29 01:40:46;;;;;;;16.02;2.88;;;10.70;99.90;;;;;;5027688;28;20037;-58
2023/12/29 01:43:12;;;;;;;13.75;2.67;;;10.40;99.90;;;;;;5048555;28;20028;-57
2023/12/29 01:45:38;;;;;;;14.52;3.42;;;10.50;99.90;;;;;;5109956;28;20071;-56
2023/12/29 01:48:04;;;;;;;16.73;3.42;;;10.60;99.90;;;;;;5110209;28;20108;-57
2023/12/29 01:50:30;;;;;;;16.75;3.17;;;10.70;99.90;;;;;;5110846;28;20043;-58
2023/12/29 01:52:56;;;;;;;13.80;3.25;;;10.40;99.90;;;;;;5111015;28;20122;-57
2023/12/29 01:55:25;;;;;;;20.17;3.38;;;10.60;99.90;;;;;;5109451;28;20039;-57
2023/12/29 01:57:51;;;;;;;14.50;3.47;;;10.60;99.90;;;;;;5110014;28;20031;-57
2023/12/29 02:00:18;;;;;;;17.20;2.95;;;10.70;99.90;;;;;;5107550;28;20059;-56
2023/12/29 02:02:46;;;;;;;13.30;3.22;;;10.60;99.90;;;;;;5110514;28;20036;-58
2023/12/29 02:05:15;;;;;;;13.32;2.72;;;10.60;99.90;;;;;;5109849;28;20126;-56
2023/12/29 02:07:42;;;;;;;15.30;3.22;;;10.70;99.90;;;;;;5110456;28;20390;-56
2023/12/29 02:10:08;;;;;;;15.57;3.15;;;10.60;99.90;;;;;;5110009;28;20039;-58
2023/12/29 02:12:37;;;;;;;13.07;2.95;;;10.60;99.90;;;;;;5110445;28;20040;-59
2023/12/29 02:15:05;;;;;;;13.50;2.85;;;10.60;99.90;;;;;;5110688;28;20082;-57
2023/12/29 02:17:56;;;;;;;17.98;3.53;;;10.60;99.90;;;;;;5112533;28;20127;-58
2023/12/29 02:20:22;;;;;;;14.82;2.88;;;10.60;99.90;;;;;;5114514;27;20044;-57
2023/12/29 02:22:48;;;;;;;14.57;2.47;;;10.80;99.90;;;;;;5114149;28;20534;-54
2023/12/29 02:25:15;;;;;;;12.95;3.05;;;10.80;99.90;;;;;;5114528;28;20028;-58
2023/12/29 02:27:54;;;;;;;17.42;2.92;;;10.90;99.90;;;;;;5109650;28;20440;-57
2023/12/29 02:30:39;;;;;;;14.10;2.55;;;10.70;99.90;;;;;;5114021;28;20482;-58
2023/12/29 02:33:07;;;;;;;13.02;2.67;;;10.90;99.90;;;;;;5113661;28;20050;-57
2023/12/29 02:35:40;;;;;;;14.07;2.58;;;10.90;99.90;;;;;;5113744;28;20047;-58
2023/12/29 02:38:06;;;;;;;18.55;3.33;;;10.80;99.90;;;;;;5107914;28;20090;-57
2023/12/29 02:40:32;;;;;;;14.10;3.08;;;10.80;99.90;;;;;;5113265;28;20040;-55
2023/12/29 02:42:58;;;;;;;11.70;2.80;;;10.70;99.90;;;;;;5113086;28;20050;-58
2023/12/29 02:45:24;;;;;;;12.20;3.33;;;10.80;99.90;;;;;;5110494;28;20084;-59
2023/12/29 02:47:49;;;;;;;17.50;3.92;;;10.90;99.90;;;;;;5030419;28;20045;-57
2023/12/29 02:50:16;;;;;;;14.23;3.17;;;10.80;99.90;;;;;;5029610;28;20037;-57
2023/12/29 02:52:41;;;;;;;14.02;2.80;;;10.80;99.90;;;;;;5027938;28;20130;-57
2023/12/29 02:55:07;;;;;;;12.23;2.95;;;10.90;99.90;;;;;;5029657;28;20099;-58
2023/12/29 02:57:33;;;;;;;15.82;3.63;;;10.90;99.90;;;;;;5029081;28;20400;-56
2023/12/29 02:59:59;;;;;;;15.90;3.25;;;10.70;99.90;;;;;;5029956;28;20033;-57
2023/12/29 03:02:24;;;;;;;15.05;3.00;;;10.60;99.90;;;;;;5053661;28;20100;-56
2023/12/29 03:04:50;;;;;;;13.93;2.72;;;10.70;99.90;;;;;;5113855;27;20490;-57
2023/12/29 03:07:16;;;;;;;13.35;2.95;;;10.50;99.90;;;;;;5106921;28;20503;-59
2023/12/29 03:09:42;;;;;;;15.40;3.50;;;10.70;99.90;;;;;;5111101;28;20051;-58
2023/12/29 03:12:07;;;;;;;16.38;3.33;;;10.40;99.90;;;;;;5112836;28;20043;-58
2023/12/29 03:14:33;;;;;;;12.77;3.50;;;10.40;99.90;;;;;;5113049;28;20071;-57
2023/12/29 03:16:59;;;;;;;14.55;3.42;;;10.50;99.90;;;;;;5112622;28;20044;-58
2023/12/29 03:19:25;;;;;;;16.60;2.85;;;10.30;99.90;;;;;;5111740;28;20079;-58
2023/12/29 03:21:50;;;;;;;15.75;2.83;;;10.20;99.90;;;;;;5107504;28;20138;-57
2023/12/29 03:24:16;;;;;;;11.90;2.28;;;10.30;99.90;;;;;;5112772;28;20027;-57
2023/12/29 03:26:42;;;;;;;9.68;2.28;;;10.40;99.90;;;;;;5103846;28;20101;-55
2023/12/29 03:29:08;;;;;;;12.18;2.60;;;10.50;99.90;;;;;;5112283;28;20470;-58
2023/12/29 03:31:33;;;;;;;11.88;2.70;;;10.20;99.90;;;;;;5111885;28;20036;-57
2023/12/29 03:33:59;;;;;;;12.90;3.20;;;10.50;99.90;;;;;;5104295;28;20027;-57
2023/12/29 03:36:25;;;;;;;23.50;3.97;;;10.50;99.90;;;;;;5111997;28;20138;-58
2023/12/29 03:38:51;;;;;;;15.75;4.45;;;10.30;99.90;;;;;;5113041;28;20106;-57
2023/12/29 03:41:16;;;;;;;19.50;3.80;;;10.40;99.90;;;;;;5112334;28;20054;-55
2023/12/29 03:43:42;;;;;;;14.88;2.95;;;10.50;99.90;;;;;;5112044;28;20036;-56
2023/12/29 03:46:21;;;;;;;15.77;3.78;;;10.40;99.90;;;;;;5111430;28;20039;-56
2023/12/29 03:48:47;;;;;;;16.92;3.28;;;10.60;99.90;;;;;;5109497;28;20027;-57
2023/12/29 03:51:13;;;;;;;18.50;3.00;;;10.60;99.90;;;;;;5112588;28;20031;-56
2023/12/29 03:53:39;;;;;;;22.20;4.63;;;10.50;99.90;;;;;;5112308;28;20154;-58
2023/12/29 03:56:09;;;;;;;20.60;4.00;;;10.70;99.90;;;;;;5112616;28;20127;-58
2023/12/29 03:58:35;;;;;;;27.40;4.18;;;10.30;99.90;;;;;;5111903;27;20123;-58
2023/12/29 04:01:02;;;;;;;22.63;4.07;;;10.20;99.90;;;;;;5112440;28;20035;-58
2023/12/29 04:03:28;;;;;;;17.27;3.70;;;10.50;99.90;;;;;;5031900;28;20128;-58
2023/12/29 04:05:53;;;;;;;23.25;3.35;;;10.30;99.90;;;;;;5029066;28;20215;-58
2023/12/29 04:08:19;;;;;;;21.73;4.00;;;10.30;99.90;;;;;;5029054;28;20049;-59
2023/12/29 04:10:45;;;;;;;18.85;3.38;;;10.50;99.90;;;;;;5101251;28;20058;-58
2023/12/29 04:13:10;;;;;;;17.10;3.60;;;10.20;99.90;;;;;;5027629;28;20444;-57
2023/12/29 04:15:36;;;;;;;18.83;3.78;;;10.20;99.90;;;;;;5028352;28;20465;-58
2023/12/29 04:18:02;;;;;;;20.67;3.75;;;10.40;99.90;;;;;;5029004;28;20093;-58
2023/12/29 04:20:27;;;;;;;28.30;3.70;;;10.40;99.90;;;;;;5027806;28;20076;-59
2023/12/29 04:22:53;;;;;;;24.35;3.58;;;10.30;99.90;;;;;;5028664;28;20045;-58
2023/12/29 04:25:19;;;;;;;18.17;3.08;;;10.40;99.90;;;;;;5028304;28;20045;-58
2023/12/29 04:27:44;;;;;;;24.20;3.88;;;10.30;99.90;;;;;;5028154;28;20533;-57
2023/12/29 04:30:10;;;;;;;18.92;2.80;;;10.20;99.90;;;;;;5027976;28;20132;-57
2023/12/29 04:32:36;;;;;;;20.40;3.30;;;10.20;99.90;;;;;;5028041;28;20095;-58
2023/12/29 04:35:02;;;;;;;20.90;3.38;;;10.20;99.90;;;;;;5053028;28;20053;-57
2023/12/29 04:37:27;;;;;;;21.88;3.65;;;10.20;99.90;;;;;;5111383;28;20051;-56
2023/12/29 04:39:53;;;;;;;16.55;3.03;;;10.20;99.90;;;;;;5110311;28;20036;-55
2023/12/29 04:42:19;;;;;;;23.45;3.35;;;10.10;99.90;;;;;;5111607;28;20071;-57
2023/12/29 04:44:44;;;;;;;17.52;3.28;;;10.20;99.90;;;;;;5111720;28;20031;-58
2023/12/29 04:47:10;;;;;;;26.67;3.55;;;10.30;99.90;;;;;;5111551;28;20042;-57
2023/12/29 04:49:36;;;;;;;21.27;3.60;;;10.30;99.90;;;;;;5111938;28;20421;-56
2023/12/29 04:52:02;;;;;;;21.33;3.88;;;10.20;99.90;;;;;;5111628;28;20043;-54
2023/12/29 04:54:27;;;;;;;18.55;3.33;;;10.30;99.90;;;;;;5027938;28;20080;-58
2023/12/29 04:56:53;;;;;;;22.20;3.80;;;10.30;99.90;;;;;;5064368;28;20035;-56
2023/12/29 04:59:19;;;;;;;22.23;3.45;;;10.30;99.90;;;;;;5027825;28;20042;-56
2023/12/29 05:01:44;;;;;;;24.10;3.67;;;10.20;99.90;;;;;;5027747;28;20506;-58
2023/12/29 05:04:10;;;;;;;20.85;3.75;;;10.20;99.90;;;;;;5028098;28;20499;-57
2023/12/29 05:06:36;;;;;;;27.48;3.78;;;10.10;99.90;;;;;;5028372;28;20059;-56
2023/12/29 05:09:02;;;;;;;21.70;3.05;;;10.20;99.90;;;;;;5028048;28;20451;-54
2023/12/29 05:11:28;;;;;;;19.98;3.58;;;10.20;99.90;;;;;;5028347;28;20079;-57
2023/12/29 05:13:54;;;;;;;26.50;4.07;;;10.20;99.90;;;;;;5027914;28;20771;-56
2023/12/29 05:16:20;;;;;;;24.35;4.00;;;10.20;99.90;;;;;;5061849;28;20039;-53
2023/12/29 05:18:45;;;;;;;22.75;3.63;;;10.10;99.90;;;;;;5111245;28;20100;-57
2023/12/29 05:21:15;;;;;;;28.13;3.95;;;10.30;99.90;;;;;;5098536;28;20044;-56
2023/12/29 05:23:41;;;;;;;29.17;4.18;;;10.20;99.90;;;;;;5110901;28;20047;-57
2023/12/29 05:26:07;;;;;;;22.83;3.35;;;10.20;99.90;;;;;;5062529;28;20045;-57
2023/12/29 05:28:33;;;;;;;27.08;4.70;;;10.10;99.90;;;;;;5028641;28;20049;-56
2023/12/29 05:31:03;;;;;;;21.67;3.97;;;10.10;99.90;;;;;;5110740;28;20036;-57
2023/12/29 05:33:29;;;;;;;22.80;3.45;;;10.00;99.90;;;;;;5111052;28;20050;-56
2023/12/29 05:35:54;;;;;;;25.90;4.15;;;10.20;99.90;;;;;;5110720;28;20153;-57
2023/12/29 05:38:20;;;;;;;24.08;3.92;;;10.20;99.90;;;;;;5109977;28;20118;-55
2023/12/29 05:40:46;;;;;;;24.42;4.15;;;10.10;99.90;;;;;;5109890;28;20141;-55
2023/12/29 05:43:11;;;;;;;23.88;3.83;;;10.20;99.90;;;;;;5108372;28;20481;-56
2023/12/29 05:45:37;;;;;;;24.83;4.82;;;10.00;99.90;;;;;;5110647;28;20040;-57
2023/12/29 05:48:03;;;;;;;30.48;5.45;;;10.20;99.90;;;;;;5111095;28;20046;-56
2023/12/29 05:50:29;;;;;;;26.23;4.78;;;10.10;99.90;;;;;;5111540;28;20027;-54
2023/12/29 05:52:54;;;;;;;29.20;4.28;;;10.20;99.90;;;;;;5030405;28;20102;-57
2023/12/29 05:55:20;;;;;;;29.05;5.28;;;10.20;99.90;;;;;;5030442;28;20125;-58
2023/12/29 05:57:46;;;;;;;29.83;5.22;;;10.30;99.90;;;;;;5029765;28;20090;-56
2023/12/29 06:00:14;;;;;;;29.33;4.43;;;10.10;99.90;;;;;;5032261;28;20122;-56
2023/12/29 06:02:43;;;;;;;30.67;4.70;;;10.40;99.90;;;;;;5114447;28;20035;-55
2023/12/29 06:05:12;;;;;;;38.05;4.80;;;10.30;99.90;;;;;;5113942;28;20036;-57
2023/12/29 06:07:38;;;;;;;27.55;4.47;;;10.20;99.90;;;;;;5114854;28;20031;-58
2023/12/29 06:10:05;;;;;;;27.20;4.85;;;10.40;99.90;;;;;;5114740;28;20093;-57
2023/12/29 06:12:30;;;;;;;30.95;4.95;;;10.30;99.90;;;;;;5106132;28;20047;-57
2023/12/29 06:14:56;;;;;;;27.05;4.40;;;10.40;99.90;;;;;;5114773;28;20040;-57
2023/12/29 06:17:22;;;;;;;31.85;4.75;;;10.20;99.90;;;;;;5031099;28;20548;-56
2023/12/29 06:19:47;;;;;;;31.45;4.90;;;10.30;99.90;;;;;;5030570;28;20057;-55
2023/12/29 06:22:14;;;;;;;27.45;4.55;;;10.20;99.90;;;;;;5097103;28;20126;-57
2023/12/29 06:24:42;;;;;;;35.95;5.55;;;10.40;99.90;;;;;;5113440;28;20050;-57
2023/12/29 06:27:09;;;;;;;34.63;4.95;;;10.40;99.90;;;;;;5113758;28;20035;-57
2023/12/29 06:29:35;;;;;;;34.05;5.25;;;10.40;99.90;;;;;;5114503;28;20086;-57
2023/12/29 06:32:01;;;;;;;34.78;4.88;;;10.50;99.90;;;;;;5114385;27;20494;-56
2023/12/29 06:34:27;;;;;;;37.60;5.70;;;10.20;99.90;;;;;;5114033;28;20035;-57
2023/12/29 06:36:52;;;;;;;27.75;4.40;;;10.20;99.90;;;;;;5114216;28;20058;-56
2023/12/29 06:39:18;;;;;;;31.60;5.75;;;10.30;99.90;;;;;;5112702;28;20135;-57
2023/12/29 06:41:44;;;;;;;37.33;5.05;;;10.40;99.90;;;;;;5114096;28;20044;-57
2023/12/29 06:44:10;;;;;;;34.53;4.93;;;10.20;99.90;;;;;;5114244;28;20478;-57
2023/12/29 06:46:39;;;;;;;35.63;5.32;;;10.40;99.90;;;;;;5113494;28;20050;-58
2023/12/29 06:49:07;;;;;;;33.90;5.28;;;10.40;99.90;;;;;;5113628;28;20066;-55
2023/12/29 06:51:34;;;;;;;40.60;5.43;;;10.40;99.90;;;;;;5113715;28;20072;-56
2023/12/29 06:54:00;;;;;;;37.38;5.57;;;10.40;99.90;;;;;;5112893;28;20039;-54
2023/12/29 06:56:26;;;;;;;38.13;5.40;;;10.20;99.90;;;;;;5035091;28;20038;-58
2023/12/29 06:58:51;;;;;;;40.03;5.63;;;10.40;99.90;;;;;;5112527;28;20502;-56
2023/12/29 07:01:17;;;;;;;43.20;4.82;;;10.10;99.90;;;;;;5098521;28;20060;-56
2023/12/29 07:03:43;;;;;;;42.22;4.95;;;10.20;99.90;;;;;;5089958;28;20078;-57
2023/12/29 07:06:10;;;;;;;35.92;5.60;;;10.10;99.90;;;;;;5096489;28;21328;-56
2023/12/29 07:08:36;;;;;;;34.70;5.30;;;10.10;99.90;;;;;;5079831;28;20044;-57
2023/12/29 07:11:02;;;;;;;36.33;4.40;;;10.00;99.90;;;;;;5024302;28;20113;-56
2023/12/29 07:13:27;;;;;;;37.00;4.68;;;10.10;99.90;;;;;;5090817;28;20047;-57
2023/12/29 07:15:54;;;;;;;35.50;4.78;;;10.30;99.90;;;;;;5071136;28;20390;-55
2023/12/29 07:18:20;;;;;;;33.60;5.13;;;10.30;99.90;;;;;;5074229;28;20050;-55
2023/12/29 07:20:45;;;;;;;30.70;4.18;;;10.10;99.90;;;;;;5018843;28;20054;-57
2023/12/29 07:23:11;;;;;;;34.53;5.32;;;10.30;99.90;;;;;;5056476;28;20500;-57
2023/12/29 07:25:36;;;;;;;24.60;4.13;;;10.30;99.90;;;;;;5019488;28;20116;-57
2023/12/29 07:28:02;;;;;;;32.15;5.00;;;10.10;99.90;;;;;;5018908;28;20030;-58
2023/12/29 07:30:28;;;;;;;25.52;4.25;;;10.00;99.90;;;;;;5020496;28;20073;-57
2023/12/29 07:32:54;;;;;;;29.95;4.70;;;10.10;99.90;;;;;;5028222;28;20555;-58
2023/12/29 07:35:19;;;;;;;21.80;3.88;;;10.20;99.90;;;;;;5023562;28;20050;-57
2023/12/29 07:37:46;;;;;;;25.23;3.88;;;10.20;99.90;;;;;;4999497;28;20036;-58
2023/12/29 07:40:12;;;;;;;26.23;4.05;;;10.10;99.90;;;;;;5025567;28;20051;-56
2023/12/29 07:42:42;;;;;;;25.10;4.35;;;10.10;99.90;;;;;;5022474;28;20042;-57
2023/12/29 07:45:09;;;;;;;19.02;3.47;;;10.30;99.90;;;;;;5014984;28;20027;-56
2023/12/29 07:47:34;;;;;;;20.42;3.78;;;10.20;99.90;;;;;;5021831;28;20168;-57
2023/12/29 07:50:01;;;;;;;30.48;4.55;;;10.20;99.90;;;;;;5030739;28;20706;-57
2023/12/29 07:52:27;;;;;;;24.33;3.92;;;10.50;99.90;;;;;;5003425;28;20392;-58
2023/12/29 07:54:52;;;;;;;21.80;3.88;;;10.20;99.90;;;;;;5021326;28;20041;-59
2023/12/29 07:57:18;;;;;;;25.00;4.45;;;10.40;99.90;;;;;;5016788;28;20035;-57
2023/12/29 07:59:44;;;;;;;22.52;4.45;;;10.40;99.90;;;;;;5028081;28;20044;-55
2023/12/29 08:02:09;;;;;;;24.95;3.78;;;10.40;99.90;;;;;;4982989;28;20068;-57
2023/12/29 08:04:35;;;;;;;27.98;4.40;;;10.30;99.90;;;;;;5030608;28;20366;-57
2023/12/29 08:07:01;;;;;;;23.70;4.97;;;10.50;99.90;;;;;;5025638;28;20050;-56
2023/12/29 08:09:27;;;;;;;23.33;3.65;;;10.40;99.90;;;;;;5012124;28;20061;-57
2023/12/29 08:11:53;;;;;;;22.83;4.72;;;10.60;99.90;;;;;;5012075;28;20045;-57
2023/12/29 08:14:18;;;;;;;27.58;4.32;;;10.40;99.90;;;;;;5018838;28;20449;-56
2023/12/29 08:16:44;;;;;;;20.17;4.07;;;10.40;99.90;;;;;;5013438;28;20095;-58
2023/12/29 08:19:10;;;;;;;22.67;3.80;;;10.70;99.90;;;;;;5016360;28;20041;-57
2023/12/29 08:21:37;;;;;;;18.85;3.88;;;10.50;99.90;;;;;;4985446;28;20462;-57
2023/12/29 08:24:02;;;;;;;29.25;5.07;;;10.50;99.90;;;;;;5019643;28;20535;-57
2023/12/29 08:26:28;;;;;;;24.38;4.15;;;10.40;99.90;;;;;;5018574;28;20033;-57
2023/12/29 08:28:54;;;;;;;29.65;4.47;;;10.70;99.90;;;;;;5020918;28;20096;-59
2023/12/29 08:31:22;;;;;;;22.25;3.65;;;10.60;99.90;;;;;;5019023;28;20073;-56
2023/12/29 08:33:48;;;;;;;18.90;3.85;;;10.50;99.90;;;;;;5020799;28;20048;-56
2023/12/29 08:36:17;;;;;;;19.77;3.20;;;10.60;99.90;;;;;;5019838;28;20031;-57
2023/12/29 08:38:43;;;;;;;19.55;3.13;;;10.60;99.90;;;;;;5018796;28;20533;-56
2023/12/29 08:41:09;;;;;;;19.23;3.83;;;10.30;99.90;;;;;;5018963;28;20035;-57
2023/12/29 08:43:36;;;;;;;20.48;3.53;;;10.40;99.90;;;;;;5007328;28;20038;-57
2023/12/29 08:46:02;;;;;;;16.58;3.17;;;10.50;99.90;;;;;;5033165;28;20152;-57
2023/12/29 08:48:27;;;;;;;14.98;3.08;;;10.40;99.90;;;;;;5018520;28;20122;-56
2023/12/29 08:50:53;;;;;;;17.40;3.75;;;10.60;99.90;;;;;;5013820;28;20057;-58
2023/12/29 08:53:19;;;;;;;17.38;3.60;;;10.50;99.90;;;;;;5002427;28;20045;-55
2023/12/29 08:55:44;;;;;;;20.08;3.55;;;10.60;99.90;;;;;;5020892;28;20042;-58
2023/12/29 08:58:11;;;;;;;13.55;3.42;;;10.60;99.90;;;;;;5022808;28;20046;-58
2023/12/29 09:00:37;;;;;;;13.68;3.45;;;10.60;99.90;;;;;;5024983;28;20030;-57
2023/12/29 09:03:03;;;;;;;15.43;4.43;;;10.60;99.90;;;;;;5024852;28;20050;-58
2023/12/29 09:05:28;;;;;;;18.70;3.10;;;10.60;99.90;;;;;;5011082;28;20037;-58
2023/12/29 09:07:54;;;;;;;13.88;4.20;;;10.50;99.90;;;;;;5014948;28;20026;-57
2023/12/29 09:10:21;;;;;;;15.25;3.42;;;10.60;99.90;;;;;;5029143;28;20086;-57
2023/12/29 09:12:47;;;;;;;17.40;3.75;;;10.60;99.90;;;;;;5020127;28;20110;-57
2023/12/29 09:15:12;;;;;;;16.58;3.67;;;10.60;99.90;;;;;;5023453;28;20117;-58
2023/12/29 09:17:38;;;;;;;18.02;3.90;;;10.40;99.90;;;;;;5020210;28;20042;-58
2023/12/29 09:20:04;;;;;;;13.73;3.10;;;10.60;99.90;;;;;;5031056;28;20619;-57
2023/12/29 09:22:30;;;;;;;17.55;3.95;;;10.60;99.90;;;;;;5025566;28;20049;-57
2023/12/29 09:24:55;;;;;;;15.90;3.47;;;10.70;99.90;;;;;;5033479;28;21697;-56
2023/12/29 09:27:21;;;;;;;13.95;3.50;;;10.70;99.90;;;;;;5019605;28;20034;-57
2023/12/29 09:29:47;;;;;;;20.20;3.63;;;10.40;99.90;;;;;;5026852;28;20034;-56
2023/12/29 09:32:13;;;;;;;13.05;3.70;;;10.40;99.90;;;;;;5021059;28;20144;-57
2023/12/29 09:34:38;;;;;;;14.70;2.85;;;10.60;99.90;;;;;;5029881;28;20086;-57
2023/12/29 09:37:04;;;;;;;12.50;2.80;;;10.70;99.90;;;;;;5014666;28;20103;-56
2023/12/29 09:39:31;;;;;;;15.60;2.95;;;10.60;99.90;;;;;;5029130;28;20048;-57
2023/12/29 09:42:00;;;;;;;13.73;3.08;;;10.70;99.90;;;;;;5024091;28;20039;-56
2023/12/29 09:44:30;;;;;;;12.93;3.00;;;10.60;99.90;;;;;;5000844;28;20042;-58
2023/12/29 09:47:00;;;;;;;12.48;2.72;;;10.50;99.90;;;;;;5010089;28;20082;-57
2023/12/29 09:49:30;;;;;;;14.98;2.90;;;10.70;99.90;;;;;;5012635;28;20091;-56
2023/12/29 09:51:58;;;;;;;13.43;3.50;;;10.40;99.90;;;;;;5019905;28;20129;-58
2023/12/29 09:54:24;;;;;;;13.48;2.40;;;10.50;99.90;;;;;;5023426;28;20036;-59
2023/12/29 09:56:51;;;;;;;10.82;1.98;;;10.30;99.90;;;;;;5019123;28;20121;-58
2023/12/29 09:59:17;;;;;;;15.93;2.10;;;10.30;99.90;;;;;;5013554;28;20123;-59
2023/12/29 10:01:46;;;;;;;9.82;1.80;;;10.20;99.90;;;;;;5019476;28;20429;-58
2023/12/29 10:04:12;;;;;;;19.42;2.58;;;9.80;99.90;;;;;;5024618;28;20035;-60
2023/12/29 10:06:41;;;;;;;17.92;2.88;;;9.60;99.90;;;;;;5019629;28;20060;-58
2023/12/29 10:09:10;;;;;;;20.20;2.78;;;9.70;99.90;;;;;;5010161;28;20038;-59
2023/12/29 10:11:38;;;;;;;15.65;1.85;;;9.50;99.90;;;;;;5018759;28;20063;-59
2023/12/29 10:14:15;;;;;;;9.73;1.42;;;9.60;99.90;;;;;;5023822;28;20407;-60
2023/12/29 10:16:48;;;;;;;6.30;1.27;;;9.30;99.90;;;;;;5015649;28;20412;-61
2023/12/29 10:19:39;;;;;;;6.53;1.17;;;9.00;99.90;;;;;;5011597;28;20397;-59
2023/12/29 10:22:10;;;;;;;6.78;1.00;;;8.80;99.90;;;;;;5032545;28;20049;-60
2023/12/29 10:24:36;;;;;;;6.22;1.20;;;8.30;99.90;;;;;;5025431;28;20073;-59
2023/12/29 10:27:02;;;;;;;11.48;1.65;;;8.70;99.90;;;;;;5019206;28;20433;-60
2023/12/29 10:29:28;;;;;;;7.97;1.30;;;8.30;99.90;;;;;;5013811;28;20046;-60
2023/12/29 10:31:53;;;;;;;8.10;1.77;;;9.00;99.90;;;;;;5017169;28;20038;-60
2023/12/29 10:34:20;;;;;;;9.23;1.80;;;9.00;99.90;;;;;;5005641;28;20046;-59
2023/12/29 10:36:50;;;;;;;11.00;2.00;;;9.20;99.90;;;;;;5016326;28;20044;-59
2023/12/29 10:39:15;;;;;;;11.80;1.88;;;8.90;99.90;;;;;;4998178;28;20470;-59
2023/12/29 10:41:41;;;;;;;12.40;1.90;;;9.00;99.90;;;;;;5026925;28;20041;-59
2023/12/29 10:44:07;;;;;;;12.93;2.42;;;9.40;99.90;;;;;;5020852;28;20068;-62
2023/12/29 10:46:33;;;;;;;14.65;3.05;;;9.70;99.90;;;;;;5031271;28;20527;-60
2023/12/29 10:49:09;;;;;;;12.05;2.22;;;9.90;99.90;;;;;;5026247;28;20044;-60
2023/12/29 10:51:37;;;;;;;14.13;2.05;;;10.00;99.90;;;;;;5016798;28;20043;-59
2023/12/29 10:54:03;;;;;;;12.75;2.17;;;9.80;99.90;;;;;;5033624;28;20038;-58
2023/12/29 10:56:32;;;;;;;14.38;2.40;;;10.10;99.90;;;;;;5032472;28;20047;-59
2023/12/29 10:59:05;;;;;;;13.90;3.15;;;9.90;99.90;;;;;;5000217;28;20038;-58
2023/12/29 11:01:32;;;;;;;18.27;2.55;;;10.10;99.90;;;;;;5025553;28;20173;-61
2023/12/29 11:04:09;;;;;;;19.05;3.15;;;10.00;99.90;;;;;;5020516;28;20428;-60
2023/12/29 11:06:44;;;;;;;17.20;2.53;;;10.20;99.90;;;;;;5016085;28;20030;-60
2023/12/29 11:09:11;;;;;;;18.40;3.05;;;10.30;99.90;;;;;;5027892;28;20052;-56
2023/12/29 11:11:37;;;;;;;20.55;2.83;;;10.10;99.90;;;;;;5033479;28;20044;-57
2023/12/29 11:14:04;;;;;;;16.30;2.75;;;10.40;99.90;;;;;;5022688;28;20046;-57
2023/12/29 11:16:31;;;;;;;16.40;2.78;;;10.30;99.90;;;;;;5004532;28;20042;-58
2023/12/29 11:18:58;;;;;;;21.55;2.88;;;10.60;99.90;;;;;;5020382;28;20045;-59
2023/12/29 11:21:27;;;;;;;18.10;3.10;;;10.40;99.90;;;;;;5016243;28;20073;-59
2023/12/29 11:23:53;;;;;;;15.50;3.17;;;10.60;99.90;;;;;;5025953;28;20121;-60
2023/12/29 11:26:19;;;;;;;17.63;2.95;;;10.40;99.90;;;;;;5028875;28;20549;-60
2023/12/29 11:28:50;;;;;;;22.42;3.33;;;10.80;99.90;;;;;;5021830;28;20431;-58
2023/12/29 11:31:17;;;;;;;22.10;3.20;;;10.80;99.90;;;;;;5021895;28;20125;-54
2023/12/29 11:33:50;;;;;;;21.88;3.25;;;10.60;99.90;;;;;;5016853;28;20120;-58
2023/12/29 11:36:22;;;;;;;17.30;2.85;;;10.90;99.90;;;;;;5016976;28;20034;-58
2023/12/29 11:38:50;;;;;;;22.98;3.00;;;10.80;99.90;;;;;;5031492;28;20049;-59
2023/12/29 11:41:40;;;;;;;22.75;2.92;;;10.90;99.90;;;;;;5023832;28;20026;-60
2023/12/29 11:44:06;;;;;;;16.20;3.28;;;10.90;99.90;;;;;;5032974;28;20384;-58
2023/12/29 11:46:32;;;;;;;27.58;3.65;;;11.10;99.90;;;;;;5026535;28;20038;-57
2023/12/29 11:49:03;;;;;;;25.73;4.03;;;11.00;99.90;;;;;;5023229;28;20045;-58
2023/12/29 11:51:33;;;;;;;21.70;3.35;;;11.00;99.90;;;;;;5017374;28;20639;-59
2023/12/29 11:54:00;;;;;;;24.73;2.95;;;10.90;99.90;;;;;;5020664;28;20050;-59
2023/12/29 11:56:40;;;;;;;19.35;3.10;;;10.90;99.90;;;;;;5033944;28;20501;-58
2023/12/29 11:59:23;;;;;;;19.65;2.58;;;11.00;99.90;;;;;;5016791;28;20387;-58
2023/12/29 12:02:00;;;;;;;13.05;2.25;;;11.10;99.90;;;;;;5027937;28;20042;-58
2023/12/29 12:04:42;;;;;;;19.88;2.88;;;11.10;99.90;;;;;;5024986;28;20042;-60
2023/12/29 12:07:16;;;;;;;21.05;2.92;;;11.10;99.90;;;;;;5016542;28;20042;-58
2023/12/29 12:09:43;;;;;;;18.25;2.80;;;11.00;99.90;;;;;;5021614;28;20034;-57
2023/12/29 12:12:10;;;;;;;19.30;3.58;;;11.00;99.90;;;;;;5028856;28;20543;-58
2023/12/29 12:14:53;;;;;;;10.93;2.17;;;10.90;99.90;;;;;;5025437;28;20041;-57
2023/12/29 12:17:33;;;;;;;19.05;2.92;;;11.00;99.90;;;;;;5023552;28;20046;-55
2023/12/29 12:20:09;;;;;;;16.52;2.60;;;11.00;99.90;;;;;;5015774;28;20626;-56
2023/12/29 12:22:36;;;;;;;15.65;2.78;;;11.00;99.90;;;;;;5033984;28;20039;-57
2023/12/29 12:25:03;;;;;;;16.83;2.78;;;11.20;99.90;;;;;;5019611;28;20032;-59
2023/12/29 12:27:31;;;;;;;18.13;2.40;;;11.20;99.90;;;;;;5017152;28;20037;-59
2023/12/29 12:29:59;;;;;;;16.00;2.72;;;11.20;99.90;;;;;;5020190;28;20049;-59
2023/12/29 12:32:29;;;;;;;13.93;2.92;;;11.20;99.90;;;;;;5001033;28;20042;-59
2023/12/29 12:34:56;;;;;;;15.70;2.55;;;11.10;99.90;;;;;;5027511;28;20763;-59
2023/12/29 12:37:26;;;;;;;15.25;2.50;;;11.10;99.90;;;;;;5021298;28;20036;-56